Terminal Aerodrome Forecast
Issued by NWS Cleveland, OH

Home | Current Version | Previous Version | Text Only | Print | Product List | Glossary On
Versions: 1 2 3 4 5 6 7 8 9 10 11 12 13 14 15 16 17 18 19 20 21 22 23 24 25
606
FTUS41 KCLE 210857 AAA
TAFCLE
TAF AMD
KCLE 210857Z 2109/2212 20007KT P6SM BKN250
     FM211200 22005KT P6SM SCT200
     FM212100 23005KT P6SM BKN200
     FM220200 21007KT P6SM SCT150
     FM220800 20009KT P6SM BKN110=

USA.gov is the U.S. government's official web portal to all federal, state and local government web resources and services.